createdAt,value
2023-01-09T00:01:30.164Z,4.90
2023-01-09T00:03:58.317Z,4.33
2023-01-09T00:06:28.143Z,5.80
2023-01-09T00:08:56.316Z,4.30
2023-01-09T00:11:24.461Z,5.10
2023-01-09T00:13:52.725Z,5.00
2023-01-09T00:16:20.972Z,4.57
2023-01-09T00:18:49.183Z,4.37
2023-01-09T00:21:17.480Z,5.23
2023-01-09T00:23:47.155Z,4.77
2023-01-09T00:26:17.804Z,4.63
2023-01-09T00:28:46.420Z,4.97
2023-01-09T00:31:15.136Z,5.57
2023-01-09T00:33:45.809Z,5.73
2023-01-09T00:36:14.307Z,5.33
2023-01-09T00:38:42.429Z,5.47
2023-01-09T00:41:16.159Z,5.60
2023-01-09T00:43:46.596Z,5.17
2023-01-09T00:46:15.909Z,5.70
2023-01-09T00:48:46.580Z,5.10
2023-01-09T00:51:15.673Z,5.53
2023-01-09T00:53:44.583Z,5.23
2023-01-09T00:56:19.360Z,5.70
2023-01-09T00:58:50.355Z,5.57
2023-01-09T01:01:18.591Z,5.90
2023-01-09T01:03:46.866Z,5.47
2023-01-09T01:06:32.486Z,5.90
2023-01-09T01:09:00.615Z,5.87
2023-01-09T01:11:30.155Z,5.60
2023-01-09T01:13:59.137Z,6.20
2023-01-09T01:16:27.575Z,5.30
2023-01-09T01:18:55.725Z,5.67
2023-01-09T01:21:23.878Z,4.77
2023-01-09T01:23:52.052Z,5.07
2023-01-09T01:26:20.200Z,5.30
2023-01-09T01:28:49.684Z,4.77
2023-01-09T01:31:19.726Z,5.77
2023-01-09T01:33:48.202Z,5.47
2023-01-09T01:36:17.605Z,6.90
2023-01-09T01:38:47.485Z,5.70
2023-01-09T01:41:29.327Z,5.50
2023-01-09T01:44:00.992Z,4.30
2023-01-09T01:46:29.597Z,5.63
2023-01-09T01:49:03.135Z,4.50
2023-01-09T01:51:33.073Z,5.10
2023-01-09T01:54:07.577Z,4.33
2023-01-09T01:56:39.092Z,4.47
2023-01-09T01:59:15.556Z,6.00
2023-01-09T02:01:46.960Z,5.07
2023-01-09T02:04:15.275Z,3.77
2023-01-09T02:06:45.394Z,4.67
2023-01-09T02:09:15.326Z,4.43
2023-01-09T02:11:46.735Z,4.27
2023-01-09T02:14:17.306Z,4.13
2023-01-09T02:16:54.234Z,3.97
2023-01-09T02:19:51.111Z,3.83
2023-01-09T02:22:27.219Z,3.80
2023-01-09T02:25:20.808Z,3.97
2023-01-09T02:28:23.244Z,3.73
2023-01-09T02:30:58.425Z,3.67
2023-01-09T02:33:38.071Z,3.33
2023-01-09T02:36:17.290Z,3.60
2023-01-09T02:38:55.106Z,3.53
2023-01-09T02:41:27.903Z,3.17
2023-01-09T02:44:13.445Z,2.77
2023-01-09T02:46:42.989Z,3.73
2023-01-09T02:49:11.570Z,3.47
2023-01-09T02:51:48.536Z,2.23
2023-01-09T02:54:24.936Z,3.30
2023-01-09T02:57:17.630Z,2.77
2023-01-09T03:00:03.087Z,2.93
2023-01-09T03:02:45.495Z,2.00
2023-01-09T03:05:22.061Z,2.37
2023-01-09T03:07:57.050Z,2.10
2023-01-09T03:10:33.195Z,2.10
2023-01-09T03:13:03.373Z,2.60
2023-01-09T03:15:35.439Z,2.00
2023-01-09T03:18:06.825Z,2.00
2023-01-09T03:20:35.767Z,2.00
2023-01-09T03:23:06.917Z,1.90
2023-01-09T03:25:35.434Z,2.30
2023-01-09T03:28:06.257Z,2.20
2023-01-09T03:30:36.254Z,1.90
2023-01-09T03:33:05.828Z,1.77
2023-01-09T03:35:33.935Z,1.53
2023-01-09T03:38:02.076Z,2.63
2023-01-09T03:40:30.181Z,1.33
2023-01-09T03:42:58.325Z,2.10
2023-01-09T03:45:26.531Z,1.70
2023-01-09T03:47:54.747Z,1.70
2023-01-09T03:50:24.284Z,1.47
2023-01-09T03:52:52.423Z,1.83
2023-01-09T03:55:20.485Z,1.83
2023-01-09T03:57:48.591Z,1.60
2023-01-09T04:00:20.997Z,1.30
2023-01-09T04:02:49.835Z,1.70
2023-01-09T04:05:18.181Z,1.60
2023-01-09T04:07:47.654Z,1.93
2023-01-09T04:10:15.763Z,1.80
2023-01-09T04:12:43.919Z,1.80
2023-01-09T04:15:12.559Z,1.90
2023-01-09T04:17:40.678Z,1.60
2023-01-09T04:20:10.073Z,1.40
2023-01-09T04:22:38.555Z,2.00
2023-01-09T04:25:09.061Z,1.57
2023-01-09T04:27:37.300Z,1.50
2023-01-09T04:30:06.659Z,1.27
2023-01-09T04:32:34.773Z,1.73
2023-01-09T04:35:02.947Z,1.27
2023-01-09T04:37:31.032Z,1.53
2023-01-09T04:39:59.158Z,1.60
2023-01-09T04:42:28.656Z,1.40
2023-01-09T04:44:56.758Z,1.30
2023-01-09T04:47:24.873Z,1.13
2023-01-09T04:49:53.085Z,1.53
2023-01-09T04:52:21.182Z,1.30
2023-01-09T04:54:50.074Z,1.13
2023-01-09T04:57:18.765Z,1.20
2023-01-09T04:59:48.251Z,0.97
2023-01-09T05:02:16.458Z,0.87
2023-01-09T05:04:44.640Z,1.07
2023-01-09T05:07:12.831Z,1.10
2023-01-09T05:09:41.020Z,1.47
2023-01-09T05:12:09.322Z,0.90
2023-01-09T05:14:37.497Z,1.00
2023-01-09T05:17:06.981Z,0.73
2023-01-09T05:19:35.401Z,0.80
2023-01-09T05:22:03.539Z,0.83
2023-01-09T05:24:31.640Z,0.70
2023-01-09T05:26:59.757Z,1.40
2023-01-09T05:29:27.869Z,0.80
2023-01-09T05:31:56.066Z,1.00
2023-01-09T05:34:25.707Z,1.90
2023-01-09T05:36:53.883Z,0.67
2023-01-09T05:39:22.104Z,0.67
2023-01-09T05:41:50.253Z,0.93
2023-01-09T05:44:18.538Z,0.53
2023-01-09T05:46:46.704Z,0.60
2023-01-09T05:49:14.821Z,0.60
2023-01-09T05:51:44.424Z,0.60
2023-01-09T05:54:12.560Z,0.60
2023-01-09T05:56:40.760Z,0.80
2023-01-09T05:59:08.933Z,0.60
2023-01-09T06:01:37.164Z,0.80
2023-01-09T06:04:05.460Z,0.50
2023-01-09T06:06:33.676Z,4.90
2023-01-09T06:09:03.658Z,0.87
2023-01-09T06:11:31.849Z,2.03
2023-01-09T06:13:59.965Z,1.03
2023-01-09T06:16:28.150Z,0.77
2023-01-09T06:18:56.576Z,1.53
2023-01-09T06:21:25.009Z,0.70
2023-01-09T06:23:53.208Z,1.67
2023-01-09T06:26:22.713Z,4.60
2023-01-09T06:28:50.917Z,1.03
2023-01-09T06:31:19.224Z,3.07
2023-01-09T06:33:47.473Z,2.40
2023-01-09T06:36:16.162Z,3.30
2023-01-09T06:38:44.646Z,1.53
2023-01-09T06:41:13.104Z,2.00
2023-01-09T06:43:42.604Z,1.80
2023-01-09T06:46:11.089Z,1.77
2023-01-09T06:48:39.262Z,6.07
2023-01-09T06:51:07.431Z,2.93
2023-01-09T06:53:36.113Z,5.53
2023-01-09T06:56:04.363Z,4.10
2023-01-09T06:58:32.483Z,2.30
2023-01-09T07:01:02.120Z,7.03
2023-01-09T07:03:31.475Z,2.73
2023-01-09T07:06:01.154Z,3.23
2023-01-09T07:08:29.560Z,1.67
2023-01-09T07:10:57.708Z,5.73
2023-01-09T07:13:25.857Z,4.70
2023-01-09T07:15:54.551Z,3.60
2023-01-09T07:18:24.162Z,2.43
2023-01-09T07:20:52.566Z,2.07
2023-01-09T07:23:20.708Z,6.77
2023-01-09T07:25:50.880Z,4.93
2023-01-09T07:28:19.130Z,2.13
2023-01-09T07:30:47.301Z,3.03
2023-01-09T07:33:15.503Z,4.27
2023-01-09T07:35:45.031Z,3.00
2023-01-09T07:38:13.352Z,1.77
2023-01-09T07:40:41.483Z,3.00
2023-01-09T07:43:09.632Z,4.20
2023-01-09T07:45:37.828Z,4.23
2023-01-09T07:48:07.093Z,6.00
2023-01-09T07:50:35.556Z,2.93
2023-01-09T07:53:05.131Z,2.40
2023-01-09T07:55:33.224Z,4.43
2023-01-09T07:58:01.345Z,4.70
2023-01-09T08:00:32.449Z,6.70
2023-01-09T08:03:01.652Z,10.90
2023-01-09T08:05:29.822Z,4.80
2023-01-09T08:07:57.977Z,4.30
2023-01-09T08:10:27.512Z,3.60
2023-01-09T08:12:55.722Z,3.80
2023-01-09T08:15:24.289Z,5.20
2023-01-09T08:17:52.584Z,4.77
2023-01-09T08:20:21.054Z,3.13
2023-01-09T08:22:53.567Z,5.20
2023-01-09T08:25:22.316Z,8.90
2023-01-09T08:27:51.964Z,3.53
2023-01-09T08:30:20.295Z,2.70
2023-01-09T08:32:51.433Z,2.80
2023-01-09T08:35:20.003Z,4.00
2023-01-09T08:37:49.353Z,4.40
2023-01-09T08:40:18.384Z,8.37
2023-01-09T08:43:04.623Z,5.83
2023-01-09T08:45:51.538Z,3.67
2023-01-09T08:48:19.690Z,3.23
2023-01-09T08:50:47.851Z,3.50
2023-01-09T08:53:16.473Z,4.40
2023-01-09T08:55:44.818Z,2.53
2023-01-09T08:58:13.209Z,4.90
2023-01-09T09:00:42.773Z,4.63
2023-01-09T09:03:11.949Z,3.13
2023-01-09T09:05:40.154Z,2.27
2023-01-09T09:08:08.312Z,4.20
2023-01-09T09:10:36.584Z,1.93
2023-01-09T09:13:04.903Z,3.00
2023-01-09T09:15:34.338Z,1.37
2023-01-09T09:18:05.952Z,2.70
2023-01-09T09:20:36.568Z,3.70
2023-01-09T09:23:05.598Z,1.97
2023-01-09T09:25:33.728Z,4.93
2023-01-09T09:28:02.329Z,2.97
2023-01-09T09:30:30.523Z,2.60
2023-01-09T09:32:58.762Z,4.17
2023-01-09T09:35:28.562Z,2.27
2023-01-09T09:37:58.428Z,1.83
2023-01-09T09:40:41.305Z,2.20
2023-01-09T09:43:50.687Z,1.10
2023-01-09T09:46:32.566Z,1.07
2023-01-09T09:49:07.015Z,1.23
2023-01-09T09:51:49.912Z,1.27
2023-01-09T09:54:25.859Z,1.63
2023-01-09T09:56:57.805Z,2.03
2023-01-09T09:59:30.698Z,1.77
2023-01-09T10:02:03.486Z,0.73
2023-01-09T10:04:37.936Z,0.73
2023-01-09T10:07:12.010Z,1.10
2023-01-09T10:09:48.394Z,1.90
2023-01-09T10:12:28.931Z,1.87
2023-01-09T10:14:59.063Z,1.90
2023-01-09T10:17:44.402Z,1.63
2023-01-09T10:20:40.390Z,2.37
2023-01-09T10:23:21.582Z,1.20
2023-01-09T10:25:57.627Z,1.60
2023-01-09T10:28:49.818Z,2.10
2023-01-09T10:31:27.037Z,1.30
2023-01-09T10:34:06.870Z,1.00
2023-01-09T10:36:52.172Z,1.27
2023-01-09T10:39:26.809Z,0.70
2023-01-09T10:41:59.375Z,1.43
2023-01-09T10:44:34.719Z,3.57
2023-01-09T10:47:05.412Z,1.43
2023-01-09T10:49:33.531Z,1.17
2023-01-09T10:52:15.676Z,1.43
2023-01-09T10:54:53.303Z,1.30
2023-01-09T10:57:42.627Z,0.97
2023-01-09T11:00:18.791Z,1.30
2023-01-09T11:02:47.868Z,1.20
2023-01-09T11:05:20.552Z,1.07
2023-01-09T11:07:54.429Z,2.40
2023-01-09T11:10:23.918Z,0.80
2023-01-09T11:12:52.045Z,1.07
2023-01-09T11:15:31.253Z,0.80
2023-01-09T11:18:19.239Z,1.90
2023-01-09T11:20:47.585Z,1.27
2023-01-09T11:23:27.109Z,2.80
2023-01-09T11:25:58.411Z,1.93
2023-01-09T11:28:26.780Z,2.50
2023-01-09T11:30:57.789Z,0.70
2023-01-09T11:33:27.632Z,0.70
2023-01-09T11:36:16.020Z,1.23
2023-01-09T11:38:51.016Z,0.87
2023-01-09T11:41:23.383Z,0.93
2023-01-09T11:43:54.011Z,2.10
2023-01-09T11:46:34.275Z,0.73
2023-01-09T11:49:04.413Z,0.70
2023-01-09T11:51:34.244Z,1.87
2023-01-09T11:54:20.242Z,1.20
2023-01-09T11:56:51.277Z,0.60
2023-01-09T11:59:22.181Z,1.80
2023-01-09T12:02:29.423Z,1.10
2023-01-09T12:05:01.186Z,1.07
2023-01-09T12:08:06.015Z,1.33
2023-01-09T12:11:09.061Z,1.43
2023-01-09T12:13:52.019Z,0.80
2023-01-09T12:16:30.926Z,1.30
2023-01-09T12:19:12.097Z,2.90
2023-01-09T12:21:49.676Z,3.90
2023-01-09T12:24:54.126Z,3.97
2023-01-09T12:27:32.333Z,3.67
2023-01-09T12:30:17.922Z,3.47
2023-01-09T12:32:55.971Z,4.90
2023-01-09T12:35:34.622Z,3.50
2023-01-09T12:38:23.526Z,10.40
2023-01-09T12:41:09.462Z,9.20
2023-01-09T12:43:48.726Z,7.67
2023-01-09T12:46:20.844Z,5.93
2023-01-09T12:49:17.485Z,10.20
2023-01-09T12:51:49.945Z,6.20
2023-01-09T12:54:25.722Z,7.30
2023-01-09T12:56:58.630Z,9.47
2023-01-09T12:59:34.360Z,7.73
2023-01-09T13:02:18.052Z,6.60
2023-01-09T13:04:53.311Z,7.40
2023-01-09T13:07:25.026Z,6.93
2023-01-09T13:09:58.909Z,7.73
2023-01-09T13:12:28.733Z,6.70
2023-01-09T13:15:01.663Z,6.13
2023-01-09T13:17:36.394Z,7.30
2023-01-09T13:20:19.651Z,10.70
2023-01-09T13:22:51.095Z,7.70
2023-01-09T13:25:44.967Z,7.20
2023-01-09T13:28:19.752Z,5.37
2023-01-09T13:31:14.824Z,5.90
2023-01-09T13:33:50.703Z,6.70
2023-01-09T13:36:27.050Z,5.23
2023-01-09T13:38:57.442Z,5.90
2023-01-09T13:41:46.088Z,6.47
2023-01-09T13:44:24.844Z,5.90
2023-01-09T13:46:55.309Z,7.73
2023-01-09T13:50:21.811Z,5.53
2023-01-09T13:52:50.100Z,7.40
2023-01-09T13:55:37.211Z,6.20
2023-01-09T13:58:23.875Z,4.77
2023-01-09T14:00:57.235Z,4.80
2023-01-09T14:03:31.308Z,5.77
2023-01-09T14:06:19.155Z,5.70
2023-01-09T14:08:50.039Z,3.80
2023-01-09T14:11:24.092Z,3.87
2023-01-09T14:14:08.275Z,4.80
2023-01-09T14:16:39.284Z,6.23
2023-01-09T14:19:22.240Z,4.63
2023-01-09T14:21:56.371Z,4.73
2023-01-09T14:24:28.746Z,5.03
2023-01-09T14:26:59.219Z,4.43
2023-01-09T14:29:45.721Z,4.50
2023-01-09T14:32:43.444Z,4.83
2023-01-09T14:35:19.186Z,2.80
2023-01-09T14:38:00.644Z,4.97
2023-01-09T14:40:29.414Z,2.57
2023-01-09T14:43:02.260Z,4.57
2023-01-09T14:45:32.664Z,3.63
2023-01-09T14:48:06.218Z,4.57
2023-01-09T14:50:38.001Z,3.53
2023-01-09T14:53:12.785Z,2.50
2023-01-09T14:55:51.368Z,4.80
2023-01-09T14:58:27.298Z,4.17
2023-01-09T15:01:01.388Z,5.00
2023-01-09T15:03:34.297Z,3.60
2023-01-09T15:06:03.072Z,4.50
2023-01-09T15:08:33.874Z,4.03
2023-01-09T15:11:03.587Z,6.93
2023-01-09T15:13:42.553Z,2.83
2023-01-09T15:16:18.780Z,2.80
2023-01-09T15:18:49.722Z,2.03
2023-01-09T15:21:22.998Z,3.17
2023-01-09T15:23:52.712Z,2.30
2023-01-09T15:26:27.708Z,3.30
2023-01-09T15:29:03.130Z,2.57
2023-01-09T15:31:32.018Z,3.20
2023-01-09T15:34:00.475Z,3.97
2023-01-09T15:36:31.008Z,2.80
2023-01-09T15:39:01.208Z,2.83
2023-01-09T15:41:48.623Z,4.67
2023-01-09T15:44:20.451Z,4.23
2023-01-09T15:46:53.937Z,3.50
2023-01-09T15:49:22.762Z,2.87
2023-01-09T15:51:52.503Z,4.53
2023-01-09T15:54:30.459Z,2.73
2023-01-09T15:57:37.330Z,4.23
2023-01-09T16:00:46.067Z,3.47
2023-01-09T16:03:23.831Z,4.73
2023-01-09T16:05:58.038Z,3.37
2023-01-09T16:08:30.479Z,4.40
2023-01-09T16:11:04.433Z,4.70
2023-01-09T16:13:35.557Z,5.17
2023-01-09T16:16:04.875Z,2.90
2023-01-09T16:18:37.278Z,3.17
2023-01-09T16:21:28.396Z,3.50
2023-01-09T16:23:58.986Z,6.67
2023-01-09T16:26:30.346Z,4.30
2023-01-09T16:29:26.958Z,2.33
2023-01-09T16:32:00.529Z,5.37
2023-01-09T16:34:28.883Z,2.80
2023-01-09T16:36:57.246Z,3.10
2023-01-09T16:39:25.592Z,4.63
2023-01-09T16:42:15.742Z,3.30
2023-01-09T16:44:44.096Z,4.70
2023-01-09T16:47:13.382Z,3.60
2023-01-09T16:49:41.609Z,4.57
2023-01-09T16:52:17.258Z,4.63
2023-01-09T16:54:46.897Z,7.03
2023-01-09T16:57:18.962Z,2.00
2023-01-09T16:59:47.518Z,4.20
2023-01-09T17:02:19.105Z,2.47
2023-01-09T17:04:47.630Z,4.30
2023-01-09T17:07:17.627Z,2.40
2023-01-09T17:09:46.393Z,5.20
2023-01-09T17:12:20.303Z,4.30
2023-01-09T17:14:48.739Z,2.80
2023-01-09T17:17:17.472Z,6.83
2023-01-09T17:19:46.743Z,3.60
2023-01-09T17:22:15.572Z,3.53
2023-01-09T17:25:00.936Z,3.00
2023-01-09T17:27:51.657Z,3.23
2023-01-09T17:30:20.433Z,6.00
2023-01-09T17:32:49.044Z,3.37
2023-01-09T17:35:17.697Z,2.50
2023-01-09T17:37:46.055Z,5.27
2023-01-09T17:40:19.739Z,1.50
2023-01-09T17:42:49.319Z,2.50
2023-01-09T17:45:17.619Z,3.10
2023-01-09T17:47:45.780Z,2.70
2023-01-09T17:50:20.695Z,3.63
2023-01-09T17:52:49.392Z,4.00
2023-01-09T17:55:17.662Z,2.23
2023-01-09T17:57:46.001Z,2.07
2023-01-09T18:00:26.171Z,2.60
2023-01-09T18:02:54.998Z,2.83
2023-01-09T18:05:23.367Z,2.27
2023-01-09T18:07:51.956Z,3.80
2023-01-09T18:10:24.243Z,2.60
2023-01-09T18:12:54.036Z,3.83
2023-01-09T18:15:24.858Z,2.03
2023-01-09T18:17:53.422Z,1.67
2023-01-09T18:20:21.653Z,2.10
2023-01-09T18:22:49.913Z,3.50
2023-01-09T18:25:18.128Z,2.33
2023-01-09T18:27:46.572Z,3.07
2023-01-09T18:30:14.844Z,3.83
2023-01-09T18:32:44.327Z,2.50
2023-01-09T18:35:12.472Z,2.37
2023-01-09T18:37:40.579Z,2.80
2023-01-09T18:40:10.256Z,3.03
2023-01-09T18:42:39.230Z,3.33
2023-01-09T18:45:08.681Z,3.93
2023-01-09T18:47:36.809Z,2.20
2023-01-09T18:50:07.084Z,3.63
2023-01-09T18:52:35.184Z,4.40
2023-01-09T18:55:03.312Z,7.30
2023-01-09T18:57:31.479Z,5.87
2023-01-09T18:59:59.619Z,1.77
2023-01-09T19:02:27.923Z,6.90
2023-01-09T19:04:56.094Z,3.43
2023-01-09T19:07:25.602Z,4.80
2023-01-09T19:09:53.828Z,4.47
2023-01-09T19:12:21.950Z,5.43
2023-01-09T19:14:50.175Z,3.83
2023-01-09T19:17:18.303Z,6.17
2023-01-09T19:19:46.417Z,3.83
2023-01-09T19:22:15.097Z,3.83
2023-01-09T19:24:44.612Z,4.50
2023-01-09T19:27:12.859Z,3.33
2023-01-09T19:29:41.030Z,3.53
2023-01-09T19:32:09.202Z,2.20
2023-01-09T19:34:37.370Z,4.10
2023-01-09T19:37:07.093Z,7.90
2023-01-09T19:39:37.670Z,5.43
2023-01-09T19:42:07.217Z,3.70
2023-01-09T19:44:35.383Z,6.60
2023-01-09T19:47:03.522Z,4.43
2023-01-09T19:49:32.225Z,3.30
2023-01-09T19:52:00.792Z,2.50
2023-01-09T19:54:30.387Z,2.90
2023-01-09T19:56:58.565Z,3.70
2023-01-09T19:59:28.130Z,3.57
2023-01-09T20:01:56.300Z,3.73
2023-01-09T20:04:26.749Z,2.13
2023-01-09T20:06:54.884Z,1.57
2023-01-09T20:09:25.752Z,2.60
2023-01-09T20:11:53.900Z,1.93
2023-01-09T20:14:22.622Z,1.47
2023-01-09T20:16:54.154Z,1.80
2023-01-09T20:19:22.574Z,2.40
2023-01-09T20:21:50.685Z,2.80
2023-01-09T20:24:18.806Z,6.43
2023-01-09T20:26:47.269Z,2.40
2023-01-09T20:29:17.473Z,4.70
2023-01-09T20:31:45.807Z,4.50
2023-01-09T20:34:16.366Z,4.80
2023-01-09T20:36:44.628Z,5.67
2023-01-09T20:39:13.241Z,4.50
2023-01-09T20:41:41.728Z,5.47
2023-01-09T20:44:14.152Z,5.50
2023-01-09T20:46:44.782Z,4.00
2023-01-09T20:49:16.038Z,2.43
2023-01-09T20:51:46.730Z,5.00
2023-01-09T20:54:14.876Z,3.90
2023-01-09T20:56:42.993Z,4.53
2023-01-09T20:59:13.221Z,4.70
2023-01-09T21:01:41.811Z,3.90
2023-01-09T21:04:10.318Z,4.53
2023-01-09T21:06:40.140Z,2.50
2023-01-09T21:09:08.445Z,3.67
2023-01-09T21:11:36.686Z,2.90
2023-01-09T21:14:04.875Z,5.40
2023-01-09T21:16:33.190Z,2.90
2023-01-09T21:19:01.375Z,2.67
2023-01-09T21:21:30.027Z,2.30
2023-01-09T21:24:01.585Z,3.00
2023-01-09T21:26:31.524Z,2.77
2023-01-09T21:29:01.282Z,1.70
2023-01-09T21:31:34.641Z,3.83
2023-01-09T21:34:05.375Z,4.17
2023-01-09T21:36:35.310Z,1.53
2023-01-09T21:39:08.165Z,2.60
2023-01-09T21:41:53.715Z,3.83
2023-01-09T21:44:39.118Z,2.13
2023-01-09T21:47:07.279Z,1.40
2023-01-09T21:49:36.213Z,2.47
2023-01-09T21:52:05.245Z,2.10
2023-01-09T21:54:35.212Z,1.40
2023-01-09T21:57:04.110Z,2.40
2023-01-09T21:59:32.436Z,3.17
2023-01-09T22:02:01.027Z,1.37
2023-01-09T22:04:30.519Z,2.97
2023-01-09T22:06:58.786Z,1.93
2023-01-09T22:09:27.178Z,1.40
2023-01-09T22:11:57.533Z,1.60
2023-01-09T22:14:25.658Z,2.70
2023-01-09T22:16:53.822Z,1.50
2023-01-09T22:19:22.011Z,1.13
2023-01-09T22:21:50.293Z,1.60
2023-01-09T22:24:21.594Z,2.20
2023-01-09T22:26:49.805Z,2.23
2023-01-09T22:29:19.314Z,1.60
2023-01-09T22:31:47.844Z,1.50
2023-01-09T22:34:17.470Z,1.33
2023-01-09T22:36:46.374Z,1.87
2023-01-09T22:39:16.350Z,2.00
2023-01-09T22:41:44.859Z,1.73
2023-01-09T22:44:13.893Z,6.50
2023-01-09T22:46:43.464Z,1.10
2023-01-09T22:49:12.307Z,1.43
2023-01-09T22:51:40.723Z,1.57
2023-01-09T22:54:09.159Z,2.37
2023-01-09T22:56:37.514Z,4.53
2023-01-09T22:59:05.628Z,2.57
2023-01-09T23:01:33.835Z,1.83
2023-01-09T23:04:04.017Z,1.40
2023-01-09T23:06:32.225Z,1.33
2023-01-09T23:09:00.375Z,2.50
2023-01-09T23:11:48.336Z,1.10
2023-01-09T23:14:16.496Z,1.67
2023-01-09T23:16:45.054Z,1.57
2023-01-09T23:19:15.708Z,1.40
2023-01-09T23:21:44.351Z,1.03
2023-01-09T23:24:13.303Z,2.60
2023-01-09T23:26:42.582Z,1.00
2023-01-09T23:29:11.934Z,1.37
2023-01-09T23:31:40.210Z,3.80
2023-01-09T23:34:09.102Z,1.23
2023-01-09T23:36:38.638Z,1.10
2023-01-09T23:39:09.045Z,1.00
2023-01-09T23:41:54.778Z,1.30
2023-01-09T23:44:23.032Z,1.00
2023-01-09T23:46:51.640Z,1.30
2023-01-09T23:49:19.858Z,0.90
2023-01-09T23:51:49.428Z,1.20
2023-01-09T23:54:17.683Z,0.90
2023-01-09T23:56:45.933Z,1.30
2023-01-09T23:59:14.973Z,1.20
